sensor_id;sensor_type;location;lat;lon;timestamp;P1;durP1;ratioP1;P2;durP2;ratioP2
45011;SDS011;63444;48.148;11.542;2023-02-11T00:00:13;24.07;;;16.90;;
45011;SDS011;63444;48.148;11.542;2023-02-11T00:02:39;25.17;;;18.20;;
45011;SDS011;63444;48.148;11.542;2023-02-11T00:05:05;27.63;;;18.03;;
45011;SDS011;63444;48.148;11.542;2023-02-11T00:07:32;29.00;;;17.80;;
45011;SDS011;63444;48.148;11.542;2023-02-11T00:09:58;28.60;;;17.80;;
45011;SDS011;63444;48.148;11.542;2023-02-11T00:12:26;24.50;;;16.87;;
45011;SDS011;63444;48.148;11.542;2023-02-11T00:14:54;24.30;;;15.53;;
45011;SDS011;63444;48.148;11.542;2023-02-11T00:17:20;25.90;;;16.80;;
45011;SDS011;63444;48.148;11.542;2023-02-11T00:19:49;25.77;;;17.07;;
45011;SDS011;63444;48.148;11.542;2023-02-11T00:22:15;24.17;;;16.93;;
45011;SDS011;63444;48.148;11.542;2023-02-11T00:24:41;24.93;;;17.60;;
45011;SDS011;63444;48.148;11.542;2023-02-11T00:27:07;26.23;;;16.37;;
45011;SDS011;63444;48.148;11.542;2023-02-11T00:29:32;22.53;;;15.77;;
45011;SDS011;63444;48.148;11.542;2023-02-11T00:31:58;22.30;;;16.00;;
45011;SDS011;63444;48.148;11.542;2023-02-11T00:34:29;21.80;;;15.20;;
45011;SDS011;63444;48.148;11.542;2023-02-11T00:36:56;21.60;;;15.27;;
45011;SDS011;63444;48.148;11.542;2023-02-11T00:39:23;24.40;;;15.67;;
45011;SDS011;63444;48.148;11.542;2023-02-11T00:41:48;22.10;;;14.70;;
45011;SDS011;63444;48.148;11.542;2023-02-11T00:44:15;24.00;;;16.90;;
45011;SDS011;63444;48.148;11.542;2023-02-11T00:46:41;21.33;;;14.73;;
45011;SDS011;63444;48.148;11.542;2023-02-11T00:49:08;22.43;;;15.30;;
45011;SDS011;63444;48.148;11.542;2023-02-11T00:51:33;22.63;;;15.67;;
45011;SDS011;63444;48.148;11.542;2023-02-11T00:53:59;23.13;;;15.83;;
45011;SDS011;63444;48.148;11.542;2023-02-11T00:56:24;24.80;;;16.57;;
45011;SDS011;63444;48.148;11.542;2023-02-11T00:58:50;21.33;;;14.90;;
45011;SDS011;63444;48.148;11.542;2023-02-11T01:01:17;21.50;;;15.93;;
45011;SDS011;63444;48.148;11.542;2023-02-11T01:03:42;21.47;;;15.43;;
45011;SDS011;63444;48.148;11.542;2023-02-11T01:06:08;21.93;;;15.07;;
45011;SDS011;63444;48.148;11.542;2023-02-11T01:08:34;22.70;;;15.77;;
45011;SDS011;63444;48.148;11.542;2023-02-11T01:11:01;22.00;;;15.00;;
45011;SDS011;63444;48.148;11.542;2023-02-11T01:13:30;22.00;;;15.27;;
45011;SDS011;63444;48.148;11.542;2023-02-11T01:15:57;20.30;;;14.70;;
45011;SDS011;63444;48.148;11.542;2023-02-11T01:18:23;21.77;;;16.00;;
45011;SDS011;63444;48.148;11.542;2023-02-11T01:20:51;21.30;;;14.77;;
45011;SDS011;63444;48.148;11.542;2023-02-11T01:23:17;22.87;;;14.90;;
45011;SDS011;63444;48.148;11.542;2023-02-11T01:25:43;21.33;;;15.53;;
45011;SDS011;63444;48.148;11.542;2023-02-11T01:28:16;23.17;;;14.80;;
45011;SDS011;63444;48.148;11.542;2023-02-11T01:30:43;22.03;;;14.80;;
45011;SDS011;63444;48.148;11.542;2023-02-11T01:33:08;23.07;;;14.63;;
45011;SDS011;63444;48.148;11.542;2023-02-11T01:35:36;17.40;;;13.97;;
45011;SDS011;63444;48.148;11.542;2023-02-11T01:38:06;24.53;;;14.83;;
45011;SDS011;63444;48.148;11.542;2023-02-11T01:40:38;20.33;;;14.60;;
45011;SDS011;63444;48.148;11.542;2023-02-11T01:43:03;22.80;;;14.57;;
45011;SDS011;63444;48.148;11.542;2023-02-11T01:48:24;19.93;;;13.90;;
45011;SDS011;63444;48.148;11.542;2023-02-11T01:50:54;20.87;;;14.60;;
45011;SDS011;63444;48.148;11.542;2023-02-11T01:53:23;19.30;;;13.80;;
45011;SDS011;63444;48.148;11.542;2023-02-11T01:56:08;20.33;;;13.53;;
45011;SDS011;63444;48.148;11.542;2023-02-11T01:58:54;16.13;;;12.57;;
45011;SDS011;63444;48.148;11.542;2023-02-11T02:01:25;17.40;;;13.07;;
45011;SDS011;63444;48.148;11.542;2023-02-11T02:03:53;18.33;;;12.80;;
45011;SDS011;63444;48.148;11.542;2023-02-11T02:06:25;18.47;;;14.10;;
45011;SDS011;63444;48.148;11.542;2023-02-11T02:09:01;18.73;;;13.07;;
45011;SDS011;63444;48.148;11.542;2023-02-11T02:11:33;17.30;;;12.87;;
45011;SDS011;63444;48.148;11.542;2023-02-11T02:14:00;16.40;;;12.43;;
45011;SDS011;63444;48.148;11.542;2023-02-11T02:16:29;19.97;;;13.30;;
45011;SDS011;63444;48.148;11.542;2023-02-11T02:36:31;16.67;;;11.80;;
45011;SDS011;63444;48.148;11.542;2023-02-11T02:39:05;17.43;;;12.03;;
45011;SDS011;63444;48.148;11.542;2023-02-11T02:41:55;17.83;;;12.23;;
45011;SDS011;63444;48.148;11.542;2023-02-11T02:44:21;15.60;;;10.73;;
45011;SDS011;63444;48.148;11.542;2023-02-11T02:46:48;14.37;;;11.10;;
45011;SDS011;63444;48.148;11.542;2023-02-11T02:49:15;19.50;;;11.30;;
45011;SDS011;63444;48.148;11.542;2023-02-11T03:03:03;16.87;;;10.53;;
45011;SDS011;63444;48.148;11.542;2023-02-11T03:10:50;15.07;;;10.63;;
45011;SDS011;63444;48.148;11.542;2023-02-11T03:13:19;16.17;;;10.60;;
45011;SDS011;63444;48.148;11.542;2023-02-11T03:15:49;18.87;;;10.93;;
45011;SDS011;63444;48.148;11.542;2023-02-11T03:18:17;14.83;;;10.07;;
45011;SDS011;63444;48.148;11.542;2023-02-11T03:20:49;14.87;;;10.80;;
45011;SDS011;63444;48.148;11.542;2023-02-11T03:23:20;15.60;;;10.67;;
45011;SDS011;63444;48.148;11.542;2023-02-11T03:26:05;15.90;;;10.87;;
45011;SDS011;63444;48.148;11.542;2023-02-11T03:28:52;11.87;;;9.80;;
45011;SDS011;63444;48.148;11.542;2023-02-11T03:31:39;12.73;;;9.63;;
45011;SDS011;63444;48.148;11.542;2023-02-11T03:34:29;15.17;;;9.13;;
45011;SDS011;63444;48.148;11.542;2023-02-11T03:37:18;13.93;;;9.30;;
45011;SDS011;63444;48.148;11.542;2023-02-11T03:39:59;13.73;;;10.30;;
45011;SDS011;63444;48.148;11.542;2023-02-11T03:42:41;14.27;;;9.77;;
45011;SDS011;63444;48.148;11.542;2023-02-11T03:45:12;12.17;;;8.97;;
45011;SDS011;63444;48.148;11.542;2023-02-11T03:47:42;13.23;;;9.53;;
45011;SDS011;63444;48.148;11.542;2023-02-11T03:50:13;13.97;;;10.43;;
45011;SDS011;63444;48.148;11.542;2023-02-11T03:52:40;13.43;;;9.60;;
45011;SDS011;63444;48.148;11.542;2023-02-11T03:55:11;12.40;;;9.03;;
45011;SDS011;63444;48.148;11.542;2023-02-11T03:57:39;13.53;;;8.93;;
45011;SDS011;63444;48.148;11.542;2023-02-11T04:00:05;11.70;;;8.20;;
45011;SDS011;63444;48.148;11.542;2023-02-11T04:02:34;12.00;;;8.17;;
45011;SDS011;63444;48.148;11.542;2023-02-11T04:05:03;11.93;;;9.13;;
45011;SDS011;63444;48.148;11.542;2023-02-11T04:07:30;10.07;;;7.83;;
45011;SDS011;63444;48.148;11.542;2023-02-11T04:09:58;11.60;;;7.97;;
45011;SDS011;63444;48.148;11.542;2023-02-11T04:12:23;10.43;;;8.17;;
45011;SDS011;63444;48.148;11.542;2023-02-11T04:14:49;11.53;;;8.03;;
45011;SDS011;63444;48.148;11.542;2023-02-11T04:17:15;11.80;;;8.37;;
45011;SDS011;63444;48.148;11.542;2023-02-11T04:19:40;11.20;;;8.00;;
45011;SDS011;63444;48.148;11.542;2023-02-11T04:22:06;10.83;;;8.27;;
45011;SDS011;63444;48.148;11.542;2023-02-11T04:24:32;11.00;;;7.77;;
45011;SDS011;63444;48.148;11.542;2023-02-11T04:26:58;12.03;;;8.33;;
45011;SDS011;63444;48.148;11.542;2023-02-11T04:29:24;12.17;;;7.93;;
45011;SDS011;63444;48.148;11.542;2023-02-11T04:31:49;11.67;;;8.77;;
45011;SDS011;63444;48.148;11.542;2023-02-11T04:34:15;11.63;;;8.10;;
45011;SDS011;63444;48.148;11.542;2023-02-11T04:36:41;12.50;;;7.90;;
45011;SDS011;63444;48.148;11.542;2023-02-11T04:39:07;12.60;;;8.13;;
45011;SDS011;63444;48.148;11.542;2023-02-11T04:41:32;13.80;;;7.90;;
45011;SDS011;63444;48.148;11.542;2023-02-11T04:43:58;11.73;;;8.07;;
45011;SDS011;63444;48.148;11.542;2023-02-11T04:46:24;12.27;;;8.43;;
45011;SDS011;63444;48.148;11.542;2023-02-11T04:48:50;11.13;;;7.77;;
45011;SDS011;63444;48.148;11.542;2023-02-11T04:51:16;11.80;;;8.43;;
45011;SDS011;63444;48.148;11.542;2023-02-11T04:53:41;9.53;;;7.43;;
45011;SDS011;63444;48.148;11.542;2023-02-11T04:56:07;14.10;;;8.17;;
45011;SDS011;63444;48.148;11.542;2023-02-11T04:58:32;11.60;;;8.43;;
45011;SDS011;63444;48.148;11.542;2023-02-11T05:01:07;9.73;;;7.90;;
45011;SDS011;63444;48.148;11.542;2023-02-11T05:03:35;9.83;;;8.00;;
45011;SDS011;63444;48.148;11.542;2023-02-11T05:06:02;11.17;;;7.80;;
45011;SDS011;63444;48.148;11.542;2023-02-11T05:08:28;11.60;;;8.47;;
45011;SDS011;63444;48.148;11.542;2023-02-11T05:10:53;10.60;;;8.27;;
45011;SDS011;63444;48.148;11.542;2023-02-11T05:13:19;10.27;;;8.47;;
45011;SDS011;63444;48.148;11.542;2023-02-11T05:15:44;13.40;;;8.67;;
45011;SDS011;63444;48.148;11.542;2023-02-11T05:18:10;11.37;;;8.43;;
45011;SDS011;63444;48.148;11.542;2023-02-11T05:20:39;13.20;;;8.47;;
45011;SDS011;63444;48.148;11.542;2023-02-11T05:23:05;10.63;;;8.27;;
45011;SDS011;63444;48.148;11.542;2023-02-11T05:25:31;10.53;;;7.90;;
45011;SDS011;63444;48.148;11.542;2023-02-11T05:27:56;11.10;;;9.03;;
45011;SDS011;63444;48.148;11.542;2023-02-11T05:30:22;13.03;;;8.53;;
45011;SDS011;63444;48.148;11.542;2023-02-11T05:32:48;12.77;;;8.70;;
45011;SDS011;63444;48.148;11.542;2023-02-11T05:35:13;11.47;;;9.07;;
45011;SDS011;63444;48.148;11.542;2023-02-11T05:37:40;13.17;;;8.87;;
45011;SDS011;63444;48.148;11.542;2023-02-11T05:40:06;12.57;;;9.30;;
45011;SDS011;63444;48.148;11.542;2023-02-11T05:42:31;12.03;;;9.17;;
45011;SDS011;63444;48.148;11.542;2023-02-11T05:44:57;11.23;;;8.87;;
45011;SDS011;63444;48.148;11.542;2023-02-11T05:47:23;13.80;;;8.40;;
45011;SDS011;63444;48.148;11.542;2023-02-11T05:49:48;12.07;;;9.20;;
45011;SDS011;63444;48.148;11.542;2023-02-11T05:52:15;13.57;;;9.13;;
45011;SDS011;63444;48.148;11.542;2023-02-11T05:54:40;10.60;;;8.27;;
45011;SDS011;63444;48.148;11.542;2023-02-11T05:57:06;10.50;;;8.63;;
45011;SDS011;63444;48.148;11.542;2023-02-11T05:59:31;11.33;;;8.50;;
45011;SDS011;63444;48.148;11.542;2023-02-11T06:01:57;10.87;;;7.70;;
45011;SDS011;63444;48.148;11.542;2023-02-11T06:04:22;9.50;;;7.67;;
45011;SDS011;63444;48.148;11.542;2023-02-11T06:06:48;11.23;;;8.07;;
45011;SDS011;63444;48.148;11.542;2023-02-11T06:09:14;13.43;;;7.67;;
45011;SDS011;63444;48.148;11.542;2023-02-11T06:11:39;13.10;;;8.00;;
45011;SDS011;63444;48.148;11.542;2023-02-11T06:14:05;11.27;;;8.33;;
45011;SDS011;63444;48.148;11.542;2023-02-11T06:16:30;11.97;;;7.87;;
45011;SDS011;63444;48.148;11.542;2023-02-11T06:18:56;11.73;;;7.47;;
45011;SDS011;63444;48.148;11.542;2023-02-11T06:21:22;10.83;;;7.47;;
45011;SDS011;63444;48.148;11.542;2023-02-11T06:23:47;12.17;;;8.13;;
45011;SDS011;63444;48.148;11.542;2023-02-11T06:26:17;11.60;;;7.80;;
45011;SDS011;63444;48.148;11.542;2023-02-11T06:28:46;12.60;;;7.90;;
45011;SDS011;63444;48.148;11.542;2023-02-11T06:31:11;10.53;;;7.47;;
45011;SDS011;63444;48.148;11.542;2023-02-11T06:33:38;9.77;;;7.53;;
45011;SDS011;63444;48.148;11.542;2023-02-11T06:36:04;12.63;;;7.60;;
45011;SDS011;63444;48.148;11.542;2023-02-11T06:38:36;9.20;;;7.00;;
45011;SDS011;63444;48.148;11.542;2023-02-11T06:41:02;12.83;;;7.37;;
45011;SDS011;63444;48.148;11.542;2023-02-11T06:43:29;10.10;;;7.53;;
45011;SDS011;63444;48.148;11.542;2023-02-11T06:45:54;11.53;;;7.50;;
45011;SDS011;63444;48.148;11.542;2023-02-11T06:48:20;17.33;;;7.77;;
45011;SDS011;63444;48.148;11.542;2023-02-11T06:50:46;12.77;;;8.20;;
45011;SDS011;63444;48.148;11.542;2023-02-11T06:53:12;13.07;;;7.70;;
45011;SDS011;63444;48.148;11.542;2023-02-11T06:55:37;13.93;;;7.90;;
45011;SDS011;63444;48.148;11.542;2023-02-11T06:58:03;12.77;;;8.20;;
45011;SDS011;63444;48.148;11.542;2023-02-11T07:00:28;13.88;;;8.40;;
45011;SDS011;63444;48.148;11.542;2023-02-11T07:02:55;12.07;;;8.00;;
45011;SDS011;63444;48.148;11.542;2023-02-11T07:05:21;10.93;;;7.63;;
45011;SDS011;63444;48.148;11.542;2023-02-11T07:07:46;11.30;;;7.83;;
45011;SDS011;63444;48.148;11.542;2023-02-11T07:10:12;10.77;;;7.60;;
45011;SDS011;63444;48.148;11.542;2023-02-11T07:12:38;9.77;;;6.93;;
45011;SDS011;63444;48.148;11.542;2023-02-11T07:15:04;10.03;;;7.40;;
45011;SDS011;63444;48.148;11.542;2023-02-11T07:17:30;9.53;;;7.33;;
45011;SDS011;63444;48.148;11.542;2023-02-11T07:19:55;9.03;;;7.07;;
45011;SDS011;63444;48.148;11.542;2023-02-11T07:22:22;8.57;;;6.97;;
45011;SDS011;63444;48.148;11.542;2023-02-11T07:24:48;12.40;;;7.13;;
45011;SDS011;63444;48.148;11.542;2023-02-11T07:27:14;10.33;;;7.10;;
45011;SDS011;63444;48.148;11.542;2023-02-11T07:29:41;13.63;;;8.10;;
45011;SDS011;63444;48.148;11.542;2023-02-11T07:32:07;13.20;;;6.20;;
45011;SDS011;63444;48.148;11.542;2023-02-11T07:34:32;9.47;;;6.50;;
45011;SDS011;63444;48.148;11.542;2023-02-11T07:36:58;9.17;;;6.37;;
45011;SDS011;63444;48.148;11.542;2023-02-11T07:39:24;10.87;;;6.20;;
45011;SDS011;63444;48.148;11.542;2023-02-11T07:41:51;9.00;;;6.77;;
45011;SDS011;63444;48.148;11.542;2023-02-11T07:44:17;12.23;;;7.03;;
45011;SDS011;63444;48.148;11.542;2023-02-11T07:46:44;13.97;;;7.10;;
45011;SDS011;63444;48.148;11.542;2023-02-11T07:49:09;12.13;;;6.40;;
45011;SDS011;63444;48.148;11.542;2023-02-11T07:51:36;10.83;;;7.00;;
45011;SDS011;63444;48.148;11.542;2023-02-11T07:54:04;9.50;;;6.97;;
45011;SDS011;63444;48.148;11.542;2023-02-11T07:56:31;11.50;;;6.43;;
45011;SDS011;63444;48.148;11.542;2023-02-11T07:58:58;12.00;;;6.80;;
45011;SDS011;63444;48.148;11.542;2023-02-11T08:01:27;11.47;;;6.67;;
45011;SDS011;63444;48.148;11.542;2023-02-11T08:03:55;11.70;;;6.47;;
45011;SDS011;63444;48.148;11.542;2023-02-11T08:06:23;13.07;;;7.20;;
45011;SDS011;63444;48.148;11.542;2023-02-11T08:08:50;14.90;;;6.80;;
45011;SDS011;63444;48.148;11.542;2023-02-11T08:11:18;11.90;;;7.53;;
45011;SDS011;63444;48.148;11.542;2023-02-11T08:13:49;11.53;;;6.60;;
45011;SDS011;63444;48.148;11.542;2023-02-11T08:16:19;10.10;;;6.57;;
45011;SDS011;63444;48.148;11.542;2023-02-11T08:18:49;11.37;;;7.27;;
45011;SDS011;63444;48.148;11.542;2023-02-11T08:21:16;15.20;;;7.43;;
45011;SDS011;63444;48.148;11.542;2023-02-11T08:23:43;10.50;;;7.47;;
45011;SDS011;63444;48.148;11.542;2023-02-11T08:26:10;12.90;;;7.57;;
45011;SDS011;63444;48.148;11.542;2023-02-11T08:28:38;14.90;;;8.03;;
45011;SDS011;63444;48.148;11.542;2023-02-11T08:31:07;13.27;;;7.73;;
45011;SDS011;63444;48.148;11.542;2023-02-11T08:33:34;13.10;;;7.47;;
45011;SDS011;63444;48.148;11.542;2023-02-11T08:36:00;15.40;;;7.87;;
45011;SDS011;63444;48.148;11.542;2023-02-11T08:38:26;15.63;;;8.60;;
45011;SDS011;63444;48.148;11.542;2023-02-11T08:40:54;12.40;;;7.60;;
45011;SDS011;63444;48.148;11.542;2023-02-11T08:43:19;10.80;;;8.10;;
45011;SDS011;63444;48.148;11.542;2023-02-11T08:45:45;10.43;;;7.67;;
45011;SDS011;63444;48.148;11.542;2023-02-11T08:48:11;11.03;;;8.37;;
45011;SDS011;63444;48.148;11.542;2023-02-11T08:50:37;13.03;;;8.30;;
45011;SDS011;63444;48.148;11.542;2023-02-11T08:53:03;16.13;;;8.80;;
45011;SDS011;63444;48.148;11.542;2023-02-11T08:55:29;14.07;;;8.83;;
45011;SDS011;63444;48.148;11.542;2023-02-11T08:57:54;19.57;;;9.43;;
45011;SDS011;63444;48.148;11.542;2023-02-11T09:00:20;12.07;;;8.83;;
45011;SDS011;63444;48.148;11.542;2023-02-11T09:02:46;12.87;;;8.43;;
45011;SDS011;63444;48.148;11.542;2023-02-11T09:05:12;14.77;;;9.20;;
45011;SDS011;63444;48.148;11.542;2023-02-11T09:07:38;15.27;;;10.13;;
45011;SDS011;63444;48.148;11.542;2023-02-11T09:10:05;17.33;;;10.70;;
45011;SDS011;63444;48.148;11.542;2023-02-11T09:12:31;14.90;;;9.53;;
45011;SDS011;63444;48.148;11.542;2023-02-11T09:14:56;14.50;;;9.40;;
45011;SDS011;63444;48.148;11.542;2023-02-11T09:17:23;14.40;;;9.73;;
45011;SDS011;63444;48.148;11.542;2023-02-11T09:19:49;14.57;;;9.90;;
45011;SDS011;63444;48.148;11.542;2023-02-11T09:22:14;17.57;;;10.07;;
45011;SDS011;63444;48.148;11.542;2023-02-11T09:24:40;15.50;;;10.47;;
45011;SDS011;63444;48.148;11.542;2023-02-11T09:27:05;15.07;;;9.80;;
45011;SDS011;63444;48.148;11.542;2023-02-11T09:29:31;16.80;;;10.53;;
45011;SDS011;63444;48.148;11.542;2023-02-11T09:31:58;15.07;;;9.67;;
45011;SDS011;63444;48.148;11.542;2023-02-11T09:34:23;15.47;;;9.17;;
45011;SDS011;63444;48.148;11.542;2023-02-11T09:36:49;14.90;;;9.23;;
45011;SDS011;63444;48.148;11.542;2023-02-11T09:39:16;13.90;;;9.80;;
45011;SDS011;63444;48.148;11.542;2023-02-11T09:41:57;18.70;;;9.73;;
45011;SDS011;63444;48.148;11.542;2023-02-11T09:44:43;15.43;;;9.87;;
45011;SDS011;63444;48.148;11.542;2023-02-11T09:49:53;16.77;;;9.93;;
45011;SDS011;63444;48.148;11.542;2023-02-11T09:55:21;16.83;;;9.33;;
45011;SDS011;63444;48.148;11.542;2023-02-11T09:57:47;14.53;;;8.87;;
45011;SDS011;63444;48.148;11.542;2023-02-11T10:00:17;15.57;;;9.00;;
45011;SDS011;63444;48.148;11.542;2023-02-11T10:03:36;16.57;;;9.63;;
45011;SDS011;63444;48.148;11.542;2023-02-11T10:11:40;14.67;;;10.90;;
45011;SDS011;63444;48.148;11.542;2023-02-11T10:17:13;18.47;;;11.10;;
45011;SDS011;63444;48.148;11.542;2023-02-11T10:19:55;16.90;;;10.70;;
45011;SDS011;63444;48.148;11.542;2023-02-11T10:22:42;18.90;;;11.17;;
45011;SDS011;63444;48.148;11.542;2023-02-11T10:25:16;16.87;;;11.40;;
45011;SDS011;63444;48.148;11.542;2023-02-11T10:28:09;16.67;;;10.77;;
45011;SDS011;63444;48.148;11.542;2023-02-11T10:36:07;16.23;;;10.10;;
45011;SDS011;63444;48.148;11.542;2023-02-11T10:38:36;16.60;;;10.20;;
45011;SDS011;63444;48.148;11.542;2023-02-11T10:41:01;16.30;;;10.50;;
45011;SDS011;63444;48.148;11.542;2023-02-11T10:43:29;14.73;;;10.23;;
45011;SDS011;63444;48.148;11.542;2023-02-11T10:45:56;11.83;;;8.23;;
45011;SDS011;63444;48.148;11.542;2023-02-11T10:48:36;15.77;;;10.07;;
45011;SDS011;63444;48.148;11.542;2023-02-11T10:51:26;14.17;;;10.37;;
45011;SDS011;63444;48.148;11.542;2023-02-11T10:56:44;14.53;;;10.80;;
45011;SDS011;63444;48.148;11.542;2023-02-11T10:59:16;15.93;;;11.57;;
45011;SDS011;63444;48.148;11.542;2023-02-11T11:01:59;15.20;;;11.07;;
45011;SDS011;63444;48.148;11.542;2023-02-11T11:06:54;15.97;;;10.47;;
45011;SDS011;63444;48.148;11.542;2023-02-11T11:09:37;15.53;;;10.97;;
45011;SDS011;63444;48.148;11.542;2023-02-11T11:12:25;16.47;;;11.70;;
45011;SDS011;63444;48.148;11.542;2023-02-11T11:15:14;14.93;;;10.60;;
45011;SDS011;63444;48.148;11.542;2023-02-11T11:17:40;14.00;;;10.43;;
45011;SDS011;63444;48.148;11.542;2023-02-11T11:20:13;14.83;;;10.60;;
45011;SDS011;63444;48.148;11.542;2023-02-11T11:22:51;17.03;;;10.67;;
45011;SDS011;63444;48.148;11.542;2023-02-11T11:25:38;20.60;;;10.80;;
45011;SDS011;63444;48.148;11.542;2023-02-11T11:28:15;17.07;;;11.23;;
45011;SDS011;63444;48.148;11.542;2023-02-11T11:30:45;17.17;;;11.17;;
45011;SDS011;63444;48.148;11.542;2023-02-11T11:33:15;16.13;;;10.50;;
45011;SDS011;63444;48.148;11.542;2023-02-11T11:38:31;15.93;;;10.43;;
45011;SDS011;63444;48.148;11.542;2023-02-11T11:44:01;20.93;;;10.47;;
45011;SDS011;63444;48.148;11.542;2023-02-11T11:46:31;14.17;;;9.40;;
45011;SDS011;63444;48.148;11.542;2023-02-11T11:49:02;15.23;;;9.80;;
45011;SDS011;63444;48.148;11.542;2023-02-11T11:51:46;13.00;;;9.53;;
45011;SDS011;63444;48.148;11.542;2023-02-11T11:54:21;14.47;;;9.13;;
45011;SDS011;63444;48.148;11.542;2023-02-11T11:56:57;16.37;;;8.90;;
45011;SDS011;63444;48.148;11.542;2023-02-11T11:59:26;15.23;;;10.37;;
45011;SDS011;63444;48.148;11.542;2023-02-11T12:02:39;16.27;;;9.13;;
45011;SDS011;63444;48.148;11.542;2023-02-11T12:07:53;14.50;;;9.60;;
45011;SDS011;63444;48.148;11.542;2023-02-11T12:13:11;16.80;;;9.60;;
45011;SDS011;63444;48.148;11.542;2023-02-11T12:21:44;14.20;;;9.93;;
45011;SDS011;63444;48.148;11.542;2023-02-11T12:27:22;13.87;;;9.70;;
45011;SDS011;63444;48.148;11.542;2023-02-11T12:36:01;16.93;;;9.23;;
45011;SDS011;63444;48.148;11.542;2023-02-11T12:38:54;14.37;;;9.77;;
45011;SDS011;63444;48.148;11.542;2023-02-11T12:45:07;13.10;;;9.33;;
45011;SDS011;63444;48.148;11.542;2023-02-11T12:56:31;13.90;;;9.57;;
45011;SDS011;63444;48.148;11.542;2023-02-11T12:59:04;13.33;;;8.93;;
45011;SDS011;63444;48.148;11.542;2023-02-11T13:01:38;12.93;;;10.00;;
45011;SDS011;63444;48.148;11.542;2023-02-11T13:04:07;14.57;;;10.17;;
45011;SDS011;63444;48.148;11.542;2023-02-11T13:06:51;14.47;;;9.50;;
45011;SDS011;63444;48.148;11.542;2023-02-11T13:09:25;16.00;;;9.77;;
45011;SDS011;63444;48.148;11.542;2023-02-11T13:11:57;13.53;;;9.63;;
45011;SDS011;63444;48.148;11.542;2023-02-11T13:14:53;14.87;;;8.60;;
45011;SDS011;63444;48.148;11.542;2023-02-11T13:17:28;11.90;;;8.63;;
45011;SDS011;63444;48.148;11.542;2023-02-11T13:20:02;14.87;;;9.37;;
45011;SDS011;63444;48.148;11.542;2023-02-11T13:23:13;14.77;;;8.63;;
45011;SDS011;63444;48.148;11.542;2023-02-11T13:25:47;13.13;;;8.50;;
45011;SDS011;63444;48.148;11.542;2023-02-11T13:30:51;15.83;;;9.07;;
45011;SDS011;63444;48.148;11.542;2023-02-11T13:33:29;24.07;;;9.83;;
45011;SDS011;63444;48.148;11.542;2023-02-11T13:38:23;13.63;;;9.33;;
45011;SDS011;63444;48.148;11.542;2023-02-11T13:41:33;15.97;;;8.53;;
45011;SDS011;63444;48.148;11.542;2023-02-11T13:43:41;14.90;;;7.90;;
45011;SDS011;63444;48.148;11.542;2023-02-11T13:46:08;13.33;;;8.80;;
45011;SDS011;63444;48.148;11.542;2023-02-11T13:48:37;15.10;;;9.20;;
45011;SDS011;63444;48.148;11.542;2023-02-11T13:51:10;15.83;;;8.93;;
45011;SDS011;63444;48.148;11.542;2023-02-11T13:56:26;12.70;;;8.20;;
45011;SDS011;63444;48.148;11.542;2023-02-11T13:58:54;13.30;;;8.63;;
45011;SDS011;63444;48.148;11.542;2023-02-11T14:04:32;13.23;;;8.40;;
45011;SDS011;63444;48.148;11.542;2023-02-11T14:07:20;12.67;;;8.10;;
45011;SDS011;63444;48.148;11.542;2023-02-11T14:16:03;11.57;;;7.77;;
45011;SDS011;63444;48.148;11.542;2023-02-11T14:24:38;12.40;;;8.93;;
45011;SDS011;63444;48.148;11.542;2023-02-11T14:40:33;14.43;;;9.30;;
45011;SDS011;63444;48.148;11.542;2023-02-11T14:43:29;17.07;;;9.90;;
45011;SDS011;63444;48.148;11.542;2023-02-11T14:46:00;15.23;;;9.73;;
45011;SDS011;63444;48.148;11.542;2023-02-11T14:48:28;13.50;;;9.83;;
45011;SDS011;63444;48.148;11.542;2023-02-11T14:51:05;12.30;;;9.27;;
45011;SDS011;63444;48.148;11.542;2023-02-11T14:53:39;15.60;;;9.63;;
45011;SDS011;63444;48.148;11.542;2023-02-11T14:56:15;13.80;;;10.33;;
45011;SDS011;63444;48.148;11.542;2023-02-11T14:58:46;17.43;;;10.37;;
45011;SDS011;63444;48.148;11.542;2023-02-11T15:04:02;21.23;;;12.37;;
45011;SDS011;63444;48.148;11.542;2023-02-11T15:09:05;14.63;;;11.27;;
45011;SDS011;63444;48.148;11.542;2023-02-11T15:11:39;20.67;;;12.40;;
45011;SDS011;63444;48.148;11.542;2023-02-11T15:14:08;17.43;;;12.60;;
45011;SDS011;63444;48.148;11.542;2023-02-11T15:16:40;17.43;;;12.20;;
45011;SDS011;63444;48.148;11.542;2023-02-11T15:19:12;17.30;;;12.27;;
45011;SDS011;63444;48.148;11.542;2023-02-11T15:21:48;17.10;;;11.97;;
45011;SDS011;63444;48.148;11.542;2023-02-11T15:24:26;15.83;;;12.50;;
45011;SDS011;63444;48.148;11.542;2023-02-11T15:27:09;14.90;;;12.20;;
45011;SDS011;63444;48.148;11.542;2023-02-11T15:29:44;21.03;;;12.83;;
45011;SDS011;63444;48.148;11.542;2023-02-11T15:32:14;19.97;;;13.10;;
45011;SDS011;63444;48.148;11.542;2023-02-11T15:34:41;16.53;;;12.00;;
45011;SDS011;63444;48.148;11.542;2023-02-11T15:37:26;17.73;;;12.97;;
45011;SDS011;63444;48.148;11.542;2023-02-11T15:40:06;18.07;;;12.93;;
45011;SDS011;63444;48.148;11.542;2023-02-11T15:42:36;15.77;;;12.60;;
45011;SDS011;63444;48.148;11.542;2023-02-11T15:47:50;22.90;;;13.70;;
45011;SDS011;63444;48.148;11.542;2023-02-11T15:50:28;18.43;;;14.23;;
45011;SDS011;63444;48.148;11.542;2023-02-11T15:52:56;21.20;;;13.33;;
45011;SDS011;63444;48.148;11.542;2023-02-11T15:55:28;17.30;;;13.27;;
45011;SDS011;63444;48.148;11.542;2023-02-11T15:57:55;18.63;;;13.83;;
45011;SDS011;63444;48.148;11.542;2023-02-11T16:00:30;20.07;;;13.57;;
45011;SDS011;63444;48.148;11.542;2023-02-11T16:03:24;16.83;;;12.73;;
45011;SDS011;63444;48.148;11.542;2023-02-11T16:05:56;18.00;;;13.03;;
45011;SDS011;63444;48.148;11.542;2023-02-11T16:08:39;22.03;;;13.50;;
45011;SDS011;63444;48.148;11.542;2023-02-11T16:11:18;18.23;;;14.23;;
45011;SDS011;63444;48.148;11.542;2023-02-11T16:17:04;17.83;;;13.40;;
45011;SDS011;63444;48.148;11.542;2023-02-11T16:19:57;18.20;;;14.00;;
45011;SDS011;63444;48.148;11.542;2023-02-11T16:22:23;22.37;;;13.63;;
45011;SDS011;63444;48.148;11.542;2023-02-11T16:24:52;18.80;;;13.50;;
45011;SDS011;63444;48.148;11.542;2023-02-11T16:27:30;18.67;;;13.90;;
45011;SDS011;63444;48.148;11.542;2023-02-11T16:30:04;20.47;;;15.30;;
45011;SDS011;63444;48.148;11.542;2023-02-11T16:32:44;20.23;;;15.13;;
45011;SDS011;63444;48.148;11.542;2023-02-11T16:35:10;20.53;;;14.17;;
45011;SDS011;63444;48.148;11.542;2023-02-11T16:37:37;17.73;;;13.83;;
45011;SDS011;63444;48.148;11.542;2023-02-11T16:40:03;19.73;;;14.73;;
45011;SDS011;63444;48.148;11.542;2023-02-11T16:42:29;22.30;;;15.07;;
45011;SDS011;63444;48.148;11.542;2023-02-11T16:44:54;21.47;;;14.60;;
45011;SDS011;63444;48.148;11.542;2023-02-11T16:47:24;21.87;;;15.17;;
45011;SDS011;63444;48.148;11.542;2023-02-11T16:49:51;25.00;;;15.70;;
45011;SDS011;63444;48.148;11.542;2023-02-11T16:52:18;20.00;;;14.33;;
45011;SDS011;63444;48.148;11.542;2023-02-11T16:54:45;22.40;;;15.30;;
45011;SDS011;63444;48.148;11.542;2023-02-11T16:57:15;21.00;;;16.10;;
45011;SDS011;63444;48.148;11.542;2023-02-11T16:59:42;20.43;;;15.67;;
45011;SDS011;63444;48.148;11.542;2023-02-11T17:02:14;21.10;;;15.73;;